Time;durP1;ratioP1;P1;durP2;ratioP2;P2;SDS_P1;SDS_P2;PMS_P1;PMS_P2;Temp;Humidity;BMP_temperature;BMP_pressure;BME280_temperature;BME280_humidity;BME280_pressure;Samples;Min_cycle;Max_cycle;Signal;HPM_P1;HPM_P2
2021/07/21 00:00:35;;;;;;;29.13;17.27;;;15.10;99.90;;;;;;5012916;28;20087;-68
2021/07/21 00:03:00;;;;;;;21.42;16.42;;;15.10;99.90;;;;;;5012704;28;20041;-68
2021/07/21 00:05:27;;;;;;;25.27;17.33;;;15.10;99.90;;;;;;5011751;28;20022;-68
2021/07/21 00:07:54;;;;;;;25.92;15.48;;;15.00;99.90;;;;;;5011362;28;20045;-67
2021/07/21 00:10:22;;;;;;;23.52;15.27;;;15.10;99.90;;;;;;5012588;28;20056;-68
2021/07/21 00:15:36;;;;;;;20.67;14.73;;;15.00;99.90;;;;;;5012027;28;20124;-68
2021/07/21 00:21:06;;;;;;;24.45;15.52;;;15.10;99.90;;;;;;4971432;28;20042;-70
2021/07/21 00:23:32;;;;;;;25.92;16.02;;;15.00;99.90;;;;;;5023311;28;20079;-69
2021/07/21 00:25:58;;;;;;;23.17;15.57;;;15.00;99.90;;;;;;5012124;28;20060;-69
2021/07/21 00:28:24;;;;;;;25.90;15.15;;;15.00;99.90;;;;;;5012273;28;20026;-67
2021/07/21 00:30:50;;;;;;;20.92;15.18;;;14.90;99.90;;;;;;5011826;28;20045;-67
2021/07/21 00:33:16;;;;;;;21.65;15.23;;;14.80;99.90;;;;;;5012163;28;20078;-68
2021/07/21 00:35:42;;;;;;;23.23;14.95;;;14.80;99.90;;;;;;5011391;28;20101;-68
2021/07/21 00:38:08;;;;;;;23.92;14.95;;;14.80;99.90;;;;;;5011585;28;20026;-68
2021/07/21 00:40:34;;;;;;;23.50;15.68;;;14.80;99.90;;;;;;5012027;28;20033;-68
2021/07/21 00:43:01;;;;;;;25.52;14.48;;;14.70;99.90;;;;;;5011920;28;20036;-67
2021/07/21 00:45:26;;;;;;;20.33;13.50;;;14.70;99.90;;;;;;5011123;28;20022;-67
2021/07/21 00:47:52;;;;;;;22.73;15.27;;;14.70;99.90;;;;;;5011896;28;20097;-67
2021/07/21 00:50:18;;;;;;;21.90;14.48;;;14.70;99.90;;;;;;4985713;28;20469;-67
2021/07/21 00:52:44;;;;;;;18.52;14.30;;;14.60;99.90;;;;;;4992066;28;20477;-67
2021/07/21 00:55:13;;;;;;;20.42;13.40;;;14.70;99.90;;;;;;4991517;28;20030;-68
2021/07/21 00:57:39;;;;;;;23.95;14.70;;;14.70;99.90;;;;;;4992076;28;20026;-67
2021/07/21 01:00:07;;;;;;;22.05;15.27;;;14.60;99.90;;;;;;4991787;28;20495;-68
2021/07/21 01:02:33;;;;;;;21.25;14.50;;;14.70;99.90;;;;;;4992177;28;20523;-67
2021/07/21 01:04:59;;;;;;;21.08;14.30;;;14.50;99.90;;;;;;4991196;28;20035;-67
2021/07/21 01:07:25;;;;;;;22.42;15.57;;;14.60;99.90;;;;;;5001483;28;20022;-69
2021/07/21 01:09:50;;;;;;;21.17;14.90;;;14.50;99.90;;;;;;4993923;28;20040;-69
2021/07/21 01:12:54;;;;;;;19.77;13.70;;;14.60;99.90;;;;;;5011896;28;20018;-69
2021/07/21 01:15:26;;;;;;;22.13;14.85;;;14.50;99.90;;;;;;4969611;28;20035;-68
2021/07/21 01:18:01;;;;;;;22.83;15.20;;;14.50;99.90;;;;;;5005783;28;20537;-68
2021/07/21 01:20:55;;;;;;;23.20;14.05;;;14.60;99.90;;;;;;5010038;28;20088;-68
2021/07/21 01:24:09;;;;;;;23.73;14.82;;;14.50;99.90;;;;;;5014610;28;20029;-68
2021/07/21 01:26:48;;;;;;;21.48;14.77;;;14.50;99.90;;;;;;5009875;28;20504;-69
2021/07/21 01:29:19;;;;;;;25.55;15.07;;;14.50;99.90;;;;;;5011410;28;20030;-69
2021/07/21 01:31:46;;;;;;;24.55;14.63;;;14.50;99.90;;;;;;5011387;28;20112;-67
2021/07/21 01:34:14;;;;;;;25.10;16.02;;;14.40;99.90;;;;;;4993506;28;20037;-67
2021/07/21 01:36:44;;;;;;;30.25;16.15;;;14.40;99.90;;;;;;5010878;28;20492;-69
2021/07/21 01:39:15;;;;;;;20.30;14.73;;;14.30;99.90;;;;;;5011243;28;20499;-67
2021/07/21 01:41:53;;;;;;;23.35;15.02;;;14.30;99.90;;;;;;5011292;28;20506;-69
2021/07/21 01:44:23;;;;;;;22.58;15.65;;;14.30;99.90;;;;;;5010886;28;20049;-68
2021/07/21 01:46:54;;;;;;;18.98;14.48;;;14.30;99.90;;;;;;5011228;28;20028;-70
2021/07/21 01:49:22;;;;;;;22.25;14.20;;;14.30;99.90;;;;;;5010683;28;20449;-68
2021/07/21 01:51:49;;;;;;;19.38;14.65;;;14.20;99.90;;;;;;5010876;28;20484;-67
2021/07/21 01:54:15;;;;;;;22.83;15.43;;;14.30;99.90;;;;;;4993394;28;20357;-67
2021/07/21 01:56:42;;;;;;;22.35;15.45;;;14.30;99.90;;;;;;5011242;28;20061;-67
2021/07/21 01:59:10;;;;;;;23.30;16.50;;;14.30;99.90;;;;;;5011399;28;20113;-69
2021/07/21 02:01:38;;;;;;;24.92;15.32;;;14.30;99.90;;;;;;5010002;28;20080;-69
2021/07/21 02:04:06;;;;;;;24.77;16.13;;;14.30;99.90;;;;;;5015070;28;20026;-68
2021/07/21 02:06:33;;;;;;;22.00;16.63;;;14.30;99.90;;;;;;5013893;28;20014;-68
2021/07/21 02:09:00;;;;;;;28.38;17.83;;;14.20;99.90;;;;;;5026858;28;20097;-68
2021/07/21 02:11:27;;;;;;;26.77;16.17;;;14.30;99.90;;;;;;5026004;28;20554;-69
2021/07/21 02:13:58;;;;;;;25.08;17.40;;;14.30;99.90;;;;;;5017757;28;20026;-69
2021/07/21 02:16:24;;;;;;;25.77;16.85;;;14.30;99.90;;;;;;5014227;28;20026;-69
2021/07/21 02:18:56;;;;;;;26.77;17.98;;;14.30;99.90;;;;;;5018148;28;20026;-69
2021/07/21 02:21:22;;;;;;;23.20;17.27;;;14.30;99.90;;;;;;5018399;28;20080;-69
2021/07/21 02:23:49;;;;;;;23.25;17.30;;;14.30;99.90;;;;;;5014743;28;20030;-69
2021/07/21 02:26:17;;;;;;;27.25;18.55;;;14.30;99.90;;;;;;5015031;28;20077;-68
2021/07/21 02:28:43;;;;;;;25.30;17.02;;;14.20;99.90;;;;;;4997281;28;20022;-67
2021/07/21 02:31:14;;;;;;;22.92;15.57;;;14.20;99.90;;;;;;5014859;28;20029;-67
2021/07/21 02:33:40;;;;;;;27.00;18.60;;;14.10;99.90;;;;;;5014821;28;20045;-67
2021/07/21 02:36:06;;;;;;;27.27;18.08;;;14.20;99.90;;;;;;5014056;28;20279;-67
2021/07/21 02:38:31;;;;;;;33.45;18.02;;;14.30;99.90;;;;;;5016675;28;20120;-67
2021/07/21 02:40:57;;;;;;;27.08;18.08;;;14.30;99.90;;;;;;5018106;28;20022;-68
2021/07/21 02:43:23;;;;;;;27.27;17.63;;;14.30;99.90;;;;;;5015278;28;20097;-67
2021/07/21 02:45:49;;;;;;;21.77;16.25;;;14.30;99.90;;;;;;5013627;28;20048;-67
2021/07/21 02:48:15;;;;;;;28.80;18.42;;;14.30;99.90;;;;;;5012776;28;20041;-67
2021/07/21 02:50:47;;;;;;;23.45;16.92;;;14.30;99.90;;;;;;5013769;28;20361;-68
2021/07/21 02:53:20;;;;;;;23.80;15.32;;;14.30;99.90;;;;;;5014135;28;20061;-68
2021/07/21 02:55:53;;;;;;;21.98;15.57;;;14.30;99.90;;;;;;5013221;28;20088;-68
2021/07/21 02:58:48;;;;;;;23.65;15.13;;;14.20;99.90;;;;;;5013791;28;20030;-68
2021/07/21 03:01:17;;;;;;;27.10;16.60;;;14.30;99.90;;;;;;4996055;28;20172;-67
2021/07/21 03:03:44;;;;;;;21.70;16.55;;;14.30;99.90;;;;;;5013661;28;20041;-67
2021/07/21 03:06:10;;;;;;;21.50;14.90;;;14.40;99.90;;;;;;4995189;28;20025;-67
2021/07/21 03:08:38;;;;;;;24.50;16.05;;;14.30;99.90;;;;;;5013540;28;20022;-67
2021/07/21 03:11:04;;;;;;;20.58;15.23;;;14.30;99.90;;;;;;5013545;28;20018;-67
2021/07/21 03:13:37;;;;;;;23.52;15.05;;;14.30;99.90;;;;;;5012808;28;20038;-67
2021/07/21 03:16:04;;;;;;;22.80;15.98;;;14.20;99.90;;;;;;5012924;28;20476;-67
2021/07/21 03:18:32;;;;;;;17.55;13.38;;;14.20;99.90;;;;;;5013482;28;20041;-69
2021/07/21 03:20:58;;;;;;;20.08;13.48;;;14.10;99.90;;;;;;5012561;28;20160;-69
2021/07/21 03:23:27;;;;;;;21.48;13.82;;;14.10;99.90;;;;;;5013775;28;20101;-69
2021/07/21 03:25:56;;;;;;;25.10;14.70;;;14.00;99.90;;;;;;5012729;28;20021;-68
2021/07/21 03:28:24;;;;;;;22.88;16.17;;;14.00;99.90;;;;;;5013137;28;20080;-67
2021/07/21 03:30:51;;;;;;;22.90;15.65;;;13.90;99.90;;;;;;5012120;28;20030;-69
2021/07/21 03:33:18;;;;;;;22.50;15.93;;;13.90;99.90;;;;;;5013176;28;20026;-68
2021/07/21 03:35:45;;;;;;;27.38;15.60;;;13.90;99.90;;;;;;5012246;28;20026;-69
2021/07/21 03:38:11;;;;;;;25.10;16.23;;;13.80;99.90;;;;;;5012611;28;20034;-68
2021/07/21 03:40:39;;;;;;;24.20;14.88;;;13.80;99.90;;;;;;5013453;23;20045;-69
2021/07/21 03:43:05;;;;;;;26.83;15.43;;;13.70;99.90;;;;;;4981602;28;20019;-69
2021/07/21 03:45:33;;;;;;;26.73;15.88;;;13.70;99.90;;;;;;4988209;28;20108;-69
2021/07/21 03:47:59;;;;;;;23.80;15.40;;;13.60;99.90;;;;;;4973576;28;20543;-69
2021/07/21 03:50:26;;;;;;;24.73;15.82;;;13.60;99.90;;;;;;4971258;28;20030;-69
2021/07/21 03:52:53;;;;;;;24.90;16.20;;;13.60;99.90;;;;;;4973089;28;20114;-69
2021/07/21 03:55:23;;;;;;;26.40;15.80;;;13.60;99.90;;;;;;4972760;28;20037;-69
2021/07/21 03:57:49;;;;;;;24.70;15.60;;;13.60;99.90;;;;;;4973881;28;20026;-70
2021/07/21 04:00:18;;;;;;;26.70;16.83;;;13.60;99.90;;;;;;4973149;28;20118;-69
2021/07/21 04:02:49;;;;;;;22.08;15.88;;;13.50;99.90;;;;;;4969839;28;20026;-73
2021/07/21 04:05:16;;;;;;;28.90;17.05;;;13.60;99.90;;;;;;4986392;28;20432;-73
2021/07/21 04:07:43;;;;;;;26.08;16.15;;;13.60;99.90;;;;;;4990840;28;20022;-73
2021/07/21 04:10:11;;;;;;;28.08;18.15;;;13.70;99.90;;;;;;4997509;28;20100;-74
2021/07/21 04:12:45;;;;;;;29.88;17.52;;;13.80;99.90;;;;;;5005758;28;20088;-73
2021/07/21 04:15:12;;;;;;;26.13;17.42;;;13.80;99.90;;;;;;4986536;28;20023;-73
2021/07/21 04:17:38;;;;;;;27.95;15.85;;;13.90;99.90;;;;;;4973102;28;20469;-74
2021/07/21 04:20:06;;;;;;;26.73;16.98;;;14.00;99.90;;;;;;4972604;28;20089;-72
2021/07/21 04:22:34;;;;;;;22.27;16.38;;;14.10;99.90;;;;;;4989970;28;20015;-73
2021/07/21 04:25:00;;;;;;;22.17;16.17;;;14.20;99.90;;;;;;4992026;28;20022;-73
2021/07/21 04:27:27;;;;;;;27.50;15.65;;;14.20;99.90;;;;;;4993954;28;20033;-73
2021/07/21 04:29:54;;;;;;;26.80;16.02;;;14.20;99.90;;;;;;4993332;28;20026;-73
2021/07/21 04:32:21;;;;;;;23.55;15.48;;;14.20;99.90;;;;;;4992341;28;20029;-70
2021/07/21 04:34:48;;;;;;;19.92;14.07;;;14.30;99.90;;;;;;4992055;28;20097;-73
2021/07/21 04:37:15;;;;;;;25.10;15.25;;;14.30;99.90;;;;;;4992038;28;20539;-72
2021/07/21 04:39:43;;;;;;;28.45;14.85;;;14.40;99.90;;;;;;4998333;28;20038;-72
2021/07/21 04:42:09;;;;;;;24.00;16.13;;;14.40;99.90;;;;;;4954915;28;20034;-72
2021/07/21 04:44:37;;;;;;;20.92;15.23;;;14.50;99.90;;;;;;4971554;28;20106;-72
2021/07/21 04:47:03;;;;;;;25.83;17.27;;;14.50;99.90;;;;;;4972731;28;20082;-72
2021/07/21 04:49:31;;;;;;;22.85;16.30;;;14.50;99.90;;;;;;4972623;28;20030;-71
2021/07/21 04:52:01;;;;;;;25.13;16.40;;;14.50;99.90;;;;;;4972528;28;20243;-71
2021/07/21 04:54:28;;;;;;;19.50;12.82;;;14.50;99.90;;;;;;4971649;28;20062;-72
2021/07/21 04:56:55;;;;;;;20.75;14.32;;;14.50;99.90;;;;;;4972197;28;20022;-68
2021/07/21 04:59:21;;;;;;;21.92;13.60;;;14.40;99.90;;;;;;4972133;28;20409;-68
2021/07/21 05:01:48;;;;;;;17.73;12.30;;;14.40;99.90;;;;;;4972134;28;20093;-68
2021/07/21 05:04:15;;;;;;;23.83;13.73;;;14.30;99.90;;;;;;4972381;28;20537;-69
2021/07/21 05:06:40;;;;;;;19.50;12.60;;;14.20;99.90;;;;;;4972244;28;20027;-69
2021/07/21 05:09:07;;;;;;;21.92;13.85;;;14.20;99.90;;;;;;4974733;28;20253;-68
2021/07/21 05:11:33;;;;;;;20.55;13.23;;;14.30;99.90;;;;;;4986870;28;20481;-69
2021/07/21 05:13:58;;;;;;;20.13;14.23;;;14.40;99.90;;;;;;4987454;28;20063;-68
2021/07/21 05:16:24;;;;;;;23.25;15.43;;;14.60;99.90;;;;;;4991291;28;20034;-74
2021/07/21 05:18:50;;;;;;;24.05;14.45;;;14.70;99.90;;;;;;5009497;28;20085;-71
2021/07/21 05:21:17;;;;;;;31.20;15.48;;;14.70;99.90;;;;;;5002482;28;20041;-72
2021/07/21 05:23:42;;;;;;;30.58;15.57;;;14.80;99.90;;;;;;4993724;28;20038;-71
2021/07/21 05:26:09;;;;;;;24.40;15.40;;;14.80;99.90;;;;;;4996237;28;20018;-72
2021/07/21 05:28:37;;;;;;;28.85;15.98;;;14.90;99.90;;;;;;4991570;28;20030;-72
2021/07/21 05:31:03;;;;;;;23.63;15.82;;;14.90;99.90;;;;;;4984136;28;20034;-69
2021/07/21 05:33:29;;;;;;;21.33;14.73;;;15.00;99.90;;;;;;4972546;28;20030;-70
2021/07/21 05:35:54;;;;;;;24.58;15.02;;;15.10;99.90;;;;;;4954667;28;20058;-70
2021/07/21 05:38:20;;;;;;;20.35;14.10;;;15.20;99.90;;;;;;4973853;28;20078;-70
2021/07/21 05:40:46;;;;;;;23.50;15.07;;;15.10;99.90;;;;;;4976026;28;20035;-69
2021/07/21 05:43:12;;;;;;;30.30;15.50;;;15.10;99.90;;;;;;5010566;28;20061;-70
2021/07/21 05:45:37;;;;;;;26.98;17.25;;;15.20;99.90;;;;;;5012518;28;20138;-69
2021/07/21 05:48:03;;;;;;;23.52;16.27;;;15.30;99.90;;;;;;5014428;28;20026;-69
2021/07/21 05:50:30;;;;;;;24.15;16.10;;;15.30;99.90;;;;;;5014608;28;20099;-69
2021/07/21 05:52:56;;;;;;;26.00;17.92;;;15.40;99.90;;;;;;5014620;28;20018;-69
2021/07/21 05:55:22;;;;;;;26.55;16.20;;;15.50;99.90;;;;;;5013896;28;20030;-71
2021/07/21 05:57:47;;;;;;;26.10;16.52;;;15.50;99.90;;;;;;4998305;28;20029;-70
2021/07/21 06:00:14;;;;;;;23.67;15.15;;;15.60;99.90;;;;;;4990927;28;20034;-71
2021/07/21 06:02:39;;;;;;;22.13;15.88;;;15.60;99.90;;;;;;4987661;28;20469;-70
2021/07/21 06:05:06;;;;;;;25.02;16.30;;;15.80;99.90;;;;;;4992985;28;20029;-72
2021/07/21 06:07:33;;;;;;;22.02;14.70;;;15.90;99.90;;;;;;4993063;28;20113;-71
2021/07/21 06:09:59;;;;;;;21.33;14.10;;;16.00;99.90;;;;;;4999443;28;20026;-71
2021/07/21 06:12:24;;;;;;;24.08;16.17;;;16.00;99.90;;;;;;5013750;28;20032;-71
2021/07/21 06:14:50;;;;;;;24.25;14.50;;;16.00;99.90;;;;;;5013378;28;20490;-70
2021/07/21 06:17:16;;;;;;;24.92;15.15;;;16.20;99.90;;;;;;5014181;28;20607;-71
2021/07/21 06:19:42;;;;;;;24.85;14.23;;;16.30;99.90;;;;;;4993633;28;20029;-71
2021/07/21 06:22:07;;;;;;;20.58;14.10;;;16.40;99.90;;;;;;4975331;28;20030;-71
2021/07/21 06:24:34;;;;;;;24.40;14.50;;;16.20;99.90;;;;;;4974165;28;20026;-70
2021/07/21 06:27:00;;;;;;;22.55;14.02;;;16.30;99.90;;;;;;4974800;28;20077;-71
2021/07/21 06:29:26;;;;;;;23.17;14.50;;;16.40;99.90;;;;;;4974844;28;20031;-71
2021/07/21 06:31:52;;;;;;;22.92;14.60;;;16.60;99.90;;;;;;4974992;28;20126;-70
2021/07/21 06:34:18;;;;;;;22.90;13.65;;;16.80;99.90;;;;;;4974524;28;20513;-69
2021/07/21 06:36:43;;;;;;;21.45;13.82;;;16.80;99.90;;;;;;4974907;28;20058;-73
2021/07/21 06:39:10;;;;;;;20.70;13.38;;;17.00;99.90;;;;;;4985830;28;20438;-71
2021/07/21 06:41:36;;;;;;;21.25;14.32;;;17.10;99.90;;;;;;5013527;28;20034;-70
2021/07/21 06:44:02;;;;;;;22.05;13.65;;;17.20;99.90;;;;;;5013761;28;20472;-69
2021/07/21 06:46:30;;;;;;;20.77;13.32;;;17.20;99.90;;;;;;5013080;28;20022;-71
2021/07/21 06:48:55;;;;;;;18.25;12.60;;;17.30;99.90;;;;;;4994737;28;20050;-71
2021/07/21 06:51:22;;;;;;;18.40;12.75;;;17.50;99.90;;;;;;5013309;28;20788;-70
2021/07/21 06:53:49;;;;;;;15.55;11.80;;;17.50;99.90;;;;;;5013534;28;20025;-71
2021/07/21 06:56:15;;;;;;;15.30;11.43;;;17.60;99.90;;;;;;5009653;28;20022;-70
2021/07/21 06:58:41;;;;;;;21.52;12.30;;;17.70;99.90;;;;;;4974185;28;20109;-69
2021/07/21 07:01:07;;;;;;;17.63;11.32;;;17.80;99.90;;;;;;4974346;28;20046;-70
2021/07/21 07:03:33;;;;;;;13.23;10.48;;;17.90;99.90;;;;;;4974409;28;20031;-70
2021/07/21 07:06:01;;;;;;;19.40;12.40;;;18.00;99.90;;;;;;4973945;28;20026;-69
2021/07/21 07:08:27;;;;;;;17.38;12.20;;;18.10;99.90;;;;;;4974417;28;20023;-70
2021/07/21 07:10:53;;;;;;;13.60;10.70;;;18.20;99.90;;;;;;4973680;28;20038;-69
2021/07/21 07:13:19;;;;;;;17.60;11.10;;;18.30;99.90;;;;;;4974156;28;20397;-70
2021/07/21 07:15:44;;;;;;;15.23;11.20;;;18.30;99.90;;;;;;5005705;28;20057;-68
2021/07/21 07:18:14;;;;;;;18.40;11.52;;;18.40;99.90;;;;;;5012955;28;20029;-68
2021/07/21 07:20:45;;;;;;;16.60;11.70;;;18.50;99.90;;;;;;4994839;28;20030;-70
2021/07/21 07:23:11;;;;;;;19.63;11.85;;;18.60;99.90;;;;;;4973308;28;20129;-70
2021/07/21 07:25:38;;;;;;;14.48;11.07;;;18.60;99.90;;;;;;4974894;28;20112;-67
2021/07/21 07:28:04;;;;;;;20.00;11.35;;;18.80;99.90;;;;;;4993367;28;20026;-67
2021/07/21 07:30:30;;;;;;;13.80;11.85;;;19.00;99.90;;;;;;4991870;28;20050;-68
2021/07/21 07:32:56;;;;;;;18.67;11.77;;;19.00;99.90;;;;;;4993400;28;20073;-68
2021/07/21 07:35:22;;;;;;;14.80;11.10;;;18.90;99.90;;;;;;4992395;28;20050;-69
2021/07/21 07:37:48;;;;;;;14.95;11.90;;;18.90;99.90;;;;;;4993303;28;20457;-69
2021/07/21 07:40:14;;;;;;;15.57;11.40;;;19.00;99.90;;;;;;4992179;28;20034;-69
2021/07/21 07:42:40;;;;;;;17.17;11.73;;;19.00;99.90;;;;;;4992967;28;20481;-69
2021/07/21 07:45:06;;;;;;;22.83;11.55;;;19.20;99.90;;;;;;5003503;28;20026;-69
2021/07/21 07:47:33;;;;;;;13.95;11.02;;;19.30;99.90;;;;;;5012521;28;20026;-69
2021/07/21 07:49:59;;;;;;;17.88;11.23;;;19.40;99.90;;;;;;5010629;28;20025;-68
2021/07/21 07:52:25;;;;;;;16.27;11.95;;;19.70;99.90;;;;;;5012241;28;20080;-68
2021/07/21 07:54:51;;;;;;;15.38;11.40;;;19.90;99.90;;;;;;5010834;28;20025;-70
2021/07/21 07:57:17;;;;;;;15.18;11.02;;;20.00;99.90;;;;;;4990993;28;20057;-69
2021/07/21 07:59:43;;;;;;;16.02;12.05;;;20.20;99.90;;;;;;4992280;28;20068;-69
2021/07/21 08:02:09;;;;;;;13.88;10.30;;;20.30;99.90;;;;;;5012007;28;20028;-69
2021/07/21 08:04:35;;;;;;;16.02;10.80;;;20.60;99.90;;;;;;5011252;28;20323;-69
2021/07/21 08:07:01;;;;;;;13.15;10.27;;;20.60;99.90;;;;;;5011940;28;20018;-69
2021/07/21 08:09:26;;;;;;;12.82;9.60;;;20.70;99.90;;;;;;5012086;28;20108;-69
2021/07/21 08:11:54;;;;;;;13.35;9.50;;;21.00;99.90;;;;;;5000308;28;20031;-70
2021/07/21 08:14:20;;;;;;;11.90;9.13;;;21.30;99.90;;;;;;4994301;28;20037;-69
2021/07/21 08:16:47;;;;;;;15.15;9.88;;;21.30;99.90;;;;;;5011758;28;20030;-69
2021/07/21 08:19:13;;;;;;;15.48;9.13;;;21.40;99.90;;;;;;5011884;28;20101;-69
2021/07/21 08:21:39;;;;;;;10.23;8.13;;;21.40;99.90;;;;;;5011425;28;20136;-68
2021/07/21 08:24:05;;;;;;;14.68;9.55;;;21.40;99.90;;;;;;5012212;28;20072;-69
2021/07/21 08:26:30;;;;;;;11.27;8.80;;;21.50;99.90;;;;;;5011173;28;20113;-68
2021/07/21 08:28:56;;;;;;;12.13;9.10;;;21.50;99.90;;;;;;4994397;28;20432;-68
2021/07/21 08:31:22;;;;;;;15.68;9.10;;;21.70;99.90;;;;;;5011738;28;20476;-68
2021/07/21 08:33:48;;;;;;;14.95;9.88;;;22.00;99.90;;;;;;5011821;28;20523;-67
2021/07/21 08:36:13;;;;;;;13.18;8.82;;;22.10;99.90;;;;;;5011070;28;20389;-68
2021/07/21 08:38:40;;;;;;;12.32;9.18;;;22.30;99.90;;;;;;4994131;28;20065;-68
2021/07/21 08:41:06;;;;;;;11.40;8.38;;;22.40;99.90;;;;;;5006981;28;20125;-69
2021/07/21 08:43:33;;;;;;;15.68;9.15;;;22.70;99.90;;;;;;4992062;28;20468;-69
2021/07/21 08:45:59;;;;;;;15.82;9.23;;;22.80;99.90;;;;;;5007743;28;20033;-69
2021/07/21 08:48:25;;;;;;;14.43;8.35;;;22.80;99.90;;;;;;5011577;28;20125;-69
2021/07/21 08:50:50;;;;;;;10.88;8.98;;;22.70;99.90;;;;;;5011164;28;20034;-69
2021/07/21 08:53:18;;;;;;;10.27;8.68;;;23.10;99.90;;;;;;5011504;28;20424;-69
2021/07/21 08:55:43;;;;;;;12.23;8.75;;;23.60;99.90;;;;;;5010783;28;20388;-69
2021/07/21 08:58:10;;;;;;;10.68;8.63;;;23.90;99.90;;;;;;4976982;28;20031;-68
2021/07/21 09:00:36;;;;;;;13.40;8.65;;;25.00;99.90;;;;;;4972113;28;20027;-69
2021/07/21 09:03:03;;;;;;;11.20;8.82;;;25.20;99.90;;;;;;4972576;28;20118;-69
2021/07/21 09:05:29;;;;;;;16.08;9.02;;;26.40;99.90;;;;;;4971679;28;20158;-68
2021/07/21 09:07:55;;;;;;;11.02;8.20;;;26.10;99.90;;;;;;4972755;28;20494;-68
2021/07/21 09:10:21;;;;;;;10.98;8.23;;;26.70;99.90;;;;;;4972243;28;20034;-69
2021/07/21 09:12:49;;;;;;;11.65;8.40;;;26.80;99.90;;;;;;4973954;28;20031;-69
2021/07/21 09:15:20;;;;;;;9.63;8.10;;;26.00;99.90;;;;;;5001873;28;20429;-69
2021/07/21 09:17:59;;;;;;;13.52;7.93;;;25.60;99.90;;;;;;5015038;28;20032;-69
2021/07/21 09:20:25;;;;;;;11.27;8.43;;;25.30;99.90;;;;;;5015143;28;20100;-69
2021/07/21 09:22:55;;;;;;;13.80;8.25;;;24.90;99.90;;;;;;5015346;28;20176;-69
2021/07/21 09:25:26;;;;;;;9.13;8.05;;;25.30;99.90;;;;;;5014635;28;20018;-69
2021/07/21 09:27:55;;;;;;;11.63;8.30;;;26.40;99.90;;;;;;5015219;28;20456;-70
2021/07/21 09:30:27;;;;;;;12.77;8.05;;;27.50;98.90;;;;;;5014406;28;20088;-68
2021/07/21 09:32:53;;;;;;;12.70;9.30;;;27.20;98.50;;;;;;5015122;28;20026;-67
2021/07/21 09:35:19;;;;;;;11.38;7.32;;;27.50;97.70;;;;;;5014513;28;20028;-69
2021/07/21 09:37:46;;;;;;;9.98;7.65;;;26.80;99.90;;;;;;5014769;28;20047;-69
2021/07/21 09:40:12;;;;;;;11.40;8.63;;;26.60;99.80;;;;;;4986984;23;1164581;-68
2021/07/21 09:42:38;;;;;;;9.48;7.75;;;26.90;98.70;;;;;;5006640;28;20026;-69
2021/07/21 09:45:11;;;;;;;10.23;8.35;;;26.80;98.30;;;;;;4998646;28;20416;-68
2021/07/21 09:47:41;;;;;;;10.60;8.00;;;27.40;96.50;;;;;;5015886;28;20034;-68
2021/07/21 09:50:23;;;;;;;8.65;7.80;;;27.60;97.40;;;;;;5014157;28;20026;-69
2021/07/21 09:52:51;;;;;;;9.32;8.00;;;28.20;96.30;;;;;;4993783;28;20115;-68
2021/07/21 09:55:19;;;;;;;9.57;7.57;;;28.00;95.60;;;;;;5002872;28;20101;-69
2021/07/21 09:57:56;;;;;;;8.50;7.05;;;28.50;97.10;;;;;;5005960;28;20018;-68
2021/07/21 10:00:23;;;;;;;9.70;7.65;;;28.40;95.30;;;;;;4997713;28;20092;-68
2021/07/21 10:02:50;;;;;;;10.65;8.80;;;29.60;93.00;;;;;;4995489;28;20029;-69
2021/07/21 10:05:16;;;;;;;9.75;8.25;;;29.40;95.20;;;;;;5004033;28;20391;-69
2021/07/21 10:07:51;;;;;;;9.50;8.23;;;30.60;92.50;;;;;;5015163;28;20028;-68
2021/07/21 10:10:18;;;;;;;10.23;7.45;;;30.10;90.70;;;;;;4995926;28;20023;-68
2021/07/21 10:12:57;;;;;;;10.25;7.60;;;28.70;92.40;;;;;;4995310;28;20037;-67
2021/07/21 10:15:23;;;;;;;10.18;8.50;;;29.70;92.30;;;;;;5003949;28;20022;-66
2021/07/21 10:18:11;;;;;;;8.30;7.50;;;29.60;90.30;;;;;;5014882;28;20092;-65
2021/07/21 10:20:38;;;;;;;12.50;8.27;;;29.40;92.10;;;;;;5013497;28;20088;-67
2021/07/21 10:23:04;;;;;;;9.85;8.27;;;29.60;91.40;;;;;;4996808;28;20029;-64
2021/07/21 10:25:30;;;;;;;11.55;8.82;;;28.90;90.70;;;;;;5013895;28;20061;-66
2021/07/21 10:27:58;;;;;;;11.20;8.38;;;28.00;92.20;;;;;;5015137;28;20105;-66
2021/07/21 10:30:25;;;;;;;11.07;8.45;;;28.30;94.00;;;;;;5014196;28;20443;-66
2021/07/21 10:32:51;;;;;;;15.05;8.60;;;28.50;93.80;;;;;;5014373;28;20049;-66
2021/07/21 10:35:16;;;;;;;11.07;8.52;;;28.80;92.60;;;;;;5013872;28;20579;-66
2021/07/21 10:37:42;;;;;;;13.20;9.13;;;29.10;92.10;;;;;;5016370;28;20026;-66
2021/07/21 10:40:08;;;;;;;11.10;8.73;;;28.50;92.10;;;;;;5028503;28;20037;-67
2021/07/21 10:42:34;;;;;;;13.82;9.05;;;28.70;93.40;;;;;;5014962;28;20120;-66
2021/07/21 10:45:30;;;;;;;12.73;9.02;;;29.40;93.00;;;;;;5013694;28;20520;-67
2021/07/21 10:48:08;;;;;;;10.68;9.13;;;29.60;92.50;;;;;;5014982;28;20042;-68
2021/07/21 10:59:11;;;;;;;10.10;8.75;;;29.90;89.80;;;;;;5013814;28;20495;-67
2021/07/21 11:01:26;;;;;;;13.35;9.23;;;29.90;90.50;;;;;;4993935;28;20041;-66
2021/07/21 11:04:04;;;;;;;12.05;9.02;;;29.10;90.70;;;;;;4994823;28;20038;-67
2021/07/21 11:06:57;;;;;;;10.60;9.35;;;29.50;90.50;;;;;;4994266;28;20033;-67
2021/07/21 11:09:28;;;;;;;9.60;8.57;;;28.80;90.70;;;;;;5008817;28;20057;-68
2021/07/21 11:11:57;;;;;;;;;;;28.70;91.30;;;;;;5014482;28;20415;-66
2021/07/21 11:14:25;;;;;;;10.65;9.43;;;28.90;91.10;;;;;;5011736;28;20286;-67
2021/07/21 11:16:53;;;;;;;14.18;9.95;;;29.70;90.10;;;;;;5014031;28;20021;-67
2021/07/21 11:19:43;;;;;;;12.05;9.50;;;30.00;90.20;;;;;;5012993;28;20021;-67
2021/07/21 11:22:23;;;;;;;10.65;9.32;;;29.40;89.90;;;;;;5013765;28;20121;-68
2021/07/21 11:25:17;;;;;;;11.93;9.02;;;29.60;90.30;;;;;;5012998;28;20118;-68
2021/07/21 11:28:12;;;;;;;11.80;9.57;;;30.50;90.50;;;;;;5013653;28;20484;-68
2021/07/21 11:30:49;;;;;;;11.93;9.70;;;30.60;85.90;;;;;;5011973;28;20132;-66
2021/07/21 11:33:42;;;;;;;10.63;9.45;;;30.10;86.90;;;;;;5012133;28;20033;-67
2021/07/21 11:36:12;;;;;;;10.90;9.13;;;30.70;89.10;;;;;;5011977;28;20057;-66
2021/07/21 11:38:53;;;;;;;10.70;9.35;;;31.00;86.30;;;;;;5012546;28;20072;-67
2021/07/21 11:41:55;;;;;;;12.77;10.17;;;30.40;88.40;;;;;;5013075;28;20491;-67
2021/07/21 11:44:28;;;;;;;16.02;9.52;;;30.70;87.60;;;;;;5012563;28;20102;-67
2021/07/21 11:46:59;;;;;;;10.30;9.25;;;30.90;88.30;;;;;;5012915;28;20122;-66
2021/07/21 11:49:27;;;;;;;11.13;9.40;;;30.60;87.60;;;;;;5012202;28;20022;-66
2021/07/21 11:52:01;;;;;;;11.52;10.07;;;29.80;90.10;;;;;;5013011;28;20120;-66
2021/07/21 11:54:35;;;;;;;11.20;8.93;;;30.20;89.10;;;;;;5012730;28;20037;-67
2021/07/21 11:57:03;;;;;;;13.45;10.00;;;30.50;86.80;;;;;;5013162;28;20424;-68
2021/07/21 11:59:34;;;;;;;10.88;9.77;;;30.80;87.60;;;;;;5001404;28;20409;-67
2021/07/21 12:02:11;;;;;;;14.95;9.70;;;31.00;85.80;;;;;;5011206;28;20096;-67
2021/07/21 12:04:40;;;;;;;19.20;11.07;;;31.50;86.70;;;;;;5003620;28;20030;-67
2021/07/21 12:07:07;;;;;;;14.65;10.48;;;29.80;83.80;;;;;;4992952;28;20030;-67
2021/07/21 12:09:36;;;;;;;13.75;10.07;;;29.70;86.70;;;;;;4992904;28;20425;-68
2021/07/21 12:12:05;;;;;;;11.20;10.10;;;30.00;90.30;;;;;;4992811;28;20018;-67
2021/07/21 12:14:31;;;;;;;17.75;10.65;;;30.80;85.30;;;;;;4994392;28;20045;-68
2021/07/21 12:17:13;;;;;;;12.73;10.57;;;31.10;86.60;;;;;;5002757;28;20026;-68
2021/07/21 12:19:51;;;;;;;13.27;10.73;;;30.60;85.30;;;;;;4992891;28;20028;-68
2021/07/21 12:22:17;;;;;;;15.73;12.20;;;31.00;84.90;;;;;;4992786;28;20030;-66
2021/07/21 12:24:48;;;;;;;13.77;10.75;;;31.40;84.70;;;;;;4992304;28;20018;-71
2021/07/21 12:27:20;;;;;;;11.15;9.98;;;31.70;83.80;;;;;;4992630;28;20118;-71
2021/07/21 12:29:45;;;;;;;12.07;10.68;;;31.60;81.60;;;;;;4991887;28;20031;-71
2021/07/21 12:32:17;;;;;;;11.45;10.18;;;31.80;85.10;;;;;;4993034;28;20484;-71
2021/07/21 12:34:43;;;;;;;;;;;31.70;81.80;;;;;;4993259;28;20038;-70
2021/07/21 12:37:18;;;;;;;13.48;10.93;;;31.50;80.90;;;;;;4995807;28;19906;-71
2021/07/21 12:39:45;;;;;;;14.18;11.27;;;31.00;82.00;;;;;;4993834;28;20080;-72
2021/07/21 12:42:13;;;;;;;14.80;12.07;;;30.90;81.50;;;;;;4993526;28;20092;-70
2021/07/21 12:44:42;;;;;;;13.02;11.70;;;31.10;80.50;;;;;;4996248;28;20544;-73
2021/07/21 12:47:14;;;;;;;13.48;11.35;;;31.50;81.60;;;;;;5012811;28;20026;-71
2021/07/21 12:49:42;;;;;;;14.05;11.20;;;31.60;81.30;;;;;;5011466;28;20053;-71
2021/07/21 12:52:12;;;;;;;12.32;10.52;;;32.30;82.70;;;;;;5005405;28;20397;-72